Private Wetterstation Sandau
Wetterdaten: Dienstag, 03.04.2012
Datum Zeit Temp. A. Feuchte A. Luftdruck Regen Wind Richtung Richtung Taupunkt Windchill
03.04.2012 00:02 5,1 C 75 % 1008,7 hPa 0,0 l/m 0,0 km/h (0 Bft) W-NW 292 1,0 C 5,1 C
03.04.2012 00:07 5,1 C 75 % 1008,7 hPa 0,0 l/m 0,0 km/h (0 Bft) W-NW 292 1,0 C 5,1 C
03.04.2012 00:12 5,1 C 75 % 1008,5 hPa 0,0 l/m 0,0 km/h (0 Bft) W-NW 292 1,0 C 5,1 C
03.04.2012 00:17 5,1 C 76 % 1008,7 hPa 0,0 l/m 0,0 km/h (0 Bft) W-NW 292 1,2 C 5,1 C
03.04.2012 00:22 5,1 C 76 % 1008,5 hPa 0,0 l/m 0,0 km/h (0 Bft) W-NW 292 1,2 C 5,1 C
03.04.2012 00:27 5,1 C 76 % 1008,5 hPa 0,0 l/m 0,0 km/h (0 Bft) W-NW 292 1,2 C 5,1 C
03.04.2012 00:32 5,1 C 76 % 1008,6 hPa 0,0 l/m 0,0 km/h (0 Bft) W-NW 292 1,2 C 5,1 C
03.04.2012 00:37 5,1 C 77 % 1008,5 hPa 0,0 l/m 0,0 km/h (0 Bft) W-NW 292 1,4 C 5,1 C
03.04.2012 00:42 4,9 C 76 % 1008,7 hPa 0,0 l/m 0,0 km/h (0 Bft) W-NW 292 1,0 C 4,9 C
03.04.2012 00:47 4,9 C 77 % 1008,5 hPa 0,0 l/m 0,0 km/h (0 Bft) W-NW 292 1,2 C 4,9 C
03.04.2012 00:52 5,1 C 77 % 1008,6 hPa 0,0 l/m 0,0 km/h (0 Bft) W-NW 292 1,4 C 5,1 C
03.04.2012 00:57 5,1 C 77 % 1008,5 hPa 0,0 l/m 0,0 km/h (0 Bft) S-SW 202 1,4 C 5,1 C
03.04.2012 01:02 5,1 C 77 % 1008,4 hPa 0,0 l/m 0,0 km/h (0 Bft) S-SW 202 1,4 C 5,1 C
03.04.2012 01:07 5,1 C 77 % 1008,5 hPa 0,0 l/m 0,0 km/h (0 Bft) S-SW 202 1,4 C 5,1 C
03.04.2012 01:12 5,1 C 77 % 1008,4 hPa 0,0 l/m 0,0 km/h (0 Bft) S-SW 202 1,4 C 5,1 C
03.04.2012 01:17 5,1 C 77 % 1008,4 hPa 0,0 l/m 0,0 km/h (0 Bft) S-SW 202 1,4 C 5,1 C
03.04.2012 01:22 5,1 C 77 % 1008,5 hPa 0,0 l/m 0,0 km/h (0 Bft) S-SW 202 1,4 C 5,1 C
03.04.2012 01:27 5,1 C 78 % 1008,4 hPa 0,0 l/m 0,0 km/h (0 Bft) S-SW 202 1,6 C 5,1 C
03.04.2012 01:32 5,1 C 78 % 1008,6 hPa 0,0 l/m 0,0 km/h (0 Bft) W 270 1,6 C 5,1 C
03.04.2012 01:37 5,1 C 78 % 1008,3 hPa 0,0 l/m 0,0 km/h (0 Bft) W 270 1,6 C 5,1 C
03.04.2012 01:42 5,1 C 78 % 1008,4 hPa 0,0 l/m 0,0 km/h (0 Bft) W 270 1,6 C 5,1 C
03.04.2012 01:47 5,1 C 78 % 1008,4 hPa 0,0 l/m 0,0 km/h (0 Bft) N-NO 22 1,6 C 5,1 C
03.04.2012 01:52 5,1 C 77 % 1008,4 hPa 0,0 l/m 1,1 km/h (1 Bft) O-NO 67 1,4 C 5,1 C
03.04.2012 01:57 5,1 C 77 % 1008,3 hPa 0,0 l/m 0,0 km/h (0 Bft) O-NO 67 1,4 C 5,1 C
03.04.2012 02:02 4,9 C 77 % 1008,4 hPa 0,0 l/m 0,0 km/h (0 Bft) O 90 1,2 C 4,9 C
03.04.2012 02:07 4,9 C 78 % 1008,2 hPa 0,0 l/m 1,1 km/h (1 Bft) O 90 1,4 C 4,9 C
03.04.2012 02:12 4,9 C 78 % 1008,2 hPa 0,0 l/m 0,0 km/h (0 Bft) O 90 1,4 C 4,9 C
03.04.2012 02:17 4,8 C 78 % 1008,2 hPa 0,0 l/m 0,0 km/h (0 Bft) O 90 1,3 C 4,8 C
03.04.2012 02:22 4,8 C 78 % 1008,2 hPa 0,0 l/m 0,0 km/h (0 Bft) O 90 1,3 C 4,8 C
03.04.2012 02:27 4,8 C 78 % 1008,1 hPa 0,0 l/m 1,4 km/h (1 Bft) O 90 1,3 C 4,8 C
03.04.2012 02:32 4,7 C 78 % 1008,2 hPa 0,0 l/m 0,0 km/h (0 Bft) O 90 1,2 C 4,7 C
03.04.2012 02:37 4,7 C 78 % 1008,0 hPa 0,0 l/m 2,5 km/h (1 Bft) O 90 1,2 C 4,7 C
03.04.2012 02:42 4,7 C 78 % 1008,1 hPa 0,0 l/m 0,0 km/h (0 Bft) O-NO 67 1,2 C 4,7 C
03.04.2012 02:47 4,7 C 78 % 1008,1 hPa 0,0 l/m 0,0 km/h (0 Bft) O-NO 67 1,2 C 4,7 C
03.04.2012 02:52 4,7 C 79 % 1008,1 hPa 0,0 l/m 1,4 km/h (1 Bft) O-NO 67 1,4 C 4,7 C
03.04.2012 02:57 4,7 C 79 % 1008,1 hPa 0,0 l/m 0,0 km/h (0 Bft) NO 45 1,4 C 4,7 C
03.04.2012 03:02 4,7 C 79 % 1008,1 hPa 0,0 l/m 3,6 km/h (1 Bft) O 90 1,4 C 4,7 C
03.04.2012 03:07 4,8 C 79 % 1008,1 hPa 0,0 l/m 6,5 km/h (2 Bft) O-NO 67 1,5 C 3,3 C
03.04.2012 03:12 4,7 C 79 % 1008,0 hPa 0,0 l/m 2,2 km/h (1 Bft) O-NO 67 1,4 C 4,7 C
03.04.2012 03:17 4,7 C 79 % 1007,9 hPa 0,0 l/m 2,5 km/h (1 Bft) O-NO 67 1,4 C 4,7 C
03.04.2012 03:22 4,6 C 79 % 1007,9 hPa 0,0 l/m 6,8 km/h (2 Bft) NO 45 1,3 C 3,0 C
03.04.2012 03:27 4,6 C 79 % 1008,0 hPa 0,0 l/m 6,1 km/h (2 Bft) NO 45 1,3 C 3,2 C
03.04.2012 03:32 4,5 C 79 % 1008,1 hPa 0,0 l/m 3,6 km/h (1 Bft) O-NO 67 1,2 C 4,5 C
03.04.2012 03:37 4,4 C 79 % 1008,1 hPa 0,0 l/m 7,6 km/h (2 Bft) NO 45 1,1 C 2,5 C
03.04.2012 03:42 4,4 C 79 % 1007,9 hPa 0,0 l/m 2,2 km/h (1 Bft) O-NO 67 1,1 C 4,4 C
03.04.2012 03:47 4,4 C 79 % 1008,0 hPa 0,0 l/m 4,3 km/h (1 Bft) O-NO 67 1,1 C 4,4 C
03.04.2012 03:52 4,3 C 79 % 1008,1 hPa 0,0 l/m 5,4 km/h (1 Bft) NO 45 1,0 C 3,1 C
03.04.2012 03:57 4,2 C 79 % 1008,1 hPa 0,0 l/m 4,7 km/h (1 Bft) O-SO 112 0,9 C 3,3 C
03.04.2012 04:02 4,2 C 79 % 1008,1 hPa 0,0 l/m 3,2 km/h (1 Bft) O 90 0,9 C 4,2 C
03.04.2012 04:07 4,1 C 79 % 1007,8 hPa 0,0 l/m 1,4 km/h (1 Bft) O 90 0,8 C 4,1 C
03.04.2012 04:12 4,1 C 79 % 1007,8 hPa 0,0 l/m 0,0 km/h (0 Bft) O 90 0,8 C 4,1 C
03.04.2012 04:17 4,1 C 80 % 1007,7 hPa 0,0 l/m 3,2 km/h (1 Bft) O-NO 67 1,0 C 4,1 C
03.04.2012 04:22 4,1 C 80 % 1007,7 hPa 0,0 l/m 1,1 km/h (1 Bft) O 90 1,0 C 4,1 C
03.04.2012 04:27 4,1 C 80 % 1007,9 hPa 0,0 l/m 10,1 km/h (2 Bft) O-NO 67 1,0 C 1,6 C
03.04.2012 04:32 4,1 C 80 % 1007,7 hPa 0,0 l/m 1,4 km/h (1 Bft) NO 45 1,0 C 4,1 C
03.04.2012 04:37 4,1 C 80 % 1007,8 hPa 0,0 l/m 2,2 km/h (1 Bft) O-NO 67 1,0 C 4,1 C
03.04.2012 04:42 4,1 C 81 % 1007,7 hPa 0,0 l/m 3,2 km/h (1 Bft) O-SO 112 1,1 C 4,1 C
03.04.2012 04:47 4,1 C 81 % 1007,6 hPa 0,0 l/m 5,0 km/h (1 Bft) O-NO 67 1,1 C 3,1 C
03.04.2012 04:52 4,1 C 81 % 1007,6 hPa 0,0 l/m 4,3 km/h (1 Bft) O 90 1,1 C 4,1 C
03.04.2012 04:57 4,1 C 81 % 1007,6 hPa 0,0 l/m 4,0 km/h (1 Bft) O 90 1,1 C 4,1 C
03.04.2012 05:02 3,9 C 81 % 1007,7 hPa 0,0 l/m 6,5 km/h (2 Bft) O-NO 67 0,9 C 2,3 C
03.04.2012 05:07 3,9 C 81 % 1007,5 hPa 0,0 l/m 5,4 km/h (1 Bft) O-NO 67 0,9 C 2,7 C
03.04.2012 05:12 3,9 C 81 % 1007,5 hPa 0,0 l/m 7,6 km/h (2 Bft) O-SO 112 0,9 C 2,0 C
03.04.2012 05:17 3,9 C 81 % 1007,5 hPa 0,0 l/m 5,8 km/h (2 Bft) O 90 0,9 C 2,5 C
03.04.2012 05:22 3,9 C 81 % 1007,4 hPa 0,0 l/m 6,8 km/h (2 Bft) O-SO 112 0,9 C 2,2 C
03.04.2012 05:27 3,9 C 81 % 1007,3 hPa 0,0 l/m 3,6 km/h (1 Bft) O-SO 112 0,9 C 3,9 C
03.04.2012 05:32 3,9 C 81 % 1007,5 hPa 0,0 l/m 0,0 km/h (0 Bft) O-NO 67 0,9 C 3,9 C
03.04.2012 05:37 3,9 C 82 % 1007,6 hPa 0,0 l/m 11,2 km/h (2 Bft) O 90 1,1 C 1,1 C
03.04.2012 05:42 3,8 C 81 % 1007,4 hPa 0,0 l/m 8,6 km/h (2 Bft) O 90 0,8 C 1,6 C
03.04.2012 05:47 3,8 C 82 % 1007,4 hPa 0,0 l/m 1,8 km/h (1 Bft) O 90 1,0 C 3,8 C
03.04.2012 05:52 3,8 C 82 % 1007,4 hPa 0,0 l/m 8,3 km/h (2 Bft) O 90 1,0 C 1,6 C
03.04.2012 05:57 3,8 C 82 % 1007,4 hPa 0,0 l/m 3,2 km/h (1 Bft) O 90 1,0 C 3,8 C
03.04.2012 06:02 3,8 C 82 % 1007,4 hPa 0,0 l/m 6,8 km/h (2 Bft) O 90 1,0 C 2,1 C
03.04.2012 06:07 3,8 C 82 % 1007,3 hPa 0,0 l/m 4,3 km/h (1 Bft) O-NO 67 1,0 C 3,8 C
03.04.2012 06:12 3,6 C 82 % 1007,4 hPa 0,0 l/m 3,2 km/h (1 Bft) O-NO 67 0,8 C 3,6 C
03.04.2012 06:17 3,6 C 82 % 1007,3 hPa 0,0 l/m 4,7 km/h (1 Bft) O 90 0,8 C 2,6 C
03.04.2012 06:22 3,6 C 82 % 1007,4 hPa 0,0 l/m 3,6 km/h (1 Bft) O-NO 67 0,8 C 3,6 C
03.04.2012 06:27 3,6 C 82 % 1007,4 hPa 0,0 l/m 4,0 km/h (1 Bft) O 90 0,8 C 3,6 C
03.04.2012 06:32 3,6 C 82 % 1007,3 hPa 0,0 l/m 5,4 km/h (1 Bft) O-NO 67 0,8 C 2,3 C
03.04.2012 06:37 3,6 C 82 % 1007,4 hPa 0,0 l/m 3,2 km/h (1 Bft) O 90 0,8 C 3,6 C
03.04.2012 06:42 3,5 C 82 % 1007,4 hPa 0,0 l/m 1,8 km/h (1 Bft) O 90 0,7 C 3,5 C
03.04.2012 06:47 3,5 C 82 % 1007,3 hPa 0,0 l/m 8,6 km/h (2 Bft) O-NO 67 0,7 C 1,2 C
03.04.2012 06:52 3,5 C 82 % 1007,5 hPa 0,0 l/m 5,8 km/h (2 Bft) O-NO 67 0,7 C 2,1 C
03.04.2012 06:57 3,5 C 82 % 1007,4 hPa 0,0 l/m 7,6 km/h (2 Bft) O 90 0,7 C 1,5 C
03.04.2012 07:02 3,5 C 82 % 1007,3 hPa 0,0 l/m 6,1 km/h (2 Bft) SO 135 0,7 C 2,0 C
03.04.2012 07:07 3,4 C 82 % 1007,3 hPa 0,0 l/m 10,1 km/h (2 Bft) O 90 0,6 C 0,7 C
03.04.2012 07:12 3,4 C 82 % 1007,5 hPa 0,0 l/m 10,1 km/h (2 Bft) O-NO 67 0,6 C 0,7 C
03.04.2012 07:17 3,4 C 82 % 1007,4 hPa 0,0 l/m 6,1 km/h (2 Bft) O-NO 67 0,6 C 1,8 C
03.04.2012 07:22 3,4 C 82 % 1007,4 hPa 0,0 l/m 9,0 km/h (2 Bft) O-SO 112 0,6 C 1,0 C
03.04.2012 07:27 3,4 C 82 % 1007,6 hPa 0,0 l/m 5,8 km/h (2 Bft) O-NO 67 0,6 C 2,0 C
03.04.2012 07:32 3,4 C 82 % 1007,4 hPa 0,0 l/m 10,8 km/h (2 Bft) O-NO 67 0,6 C 0,6 C
03.04.2012 07:37 3,4 C 82 % 1007,5 hPa 0,0 l/m 5,8 km/h (2 Bft) O-NO 67 0,6 C 2,0 C
03.04.2012 07:42 3,5 C 82 % 1007,4 hPa 0,0 l/m 9,4 km/h (2 Bft) O-NO 67 0,7 C 1,0 C
03.04.2012 07:47 3,5 C 82 % 1007,6 hPa 0,0 l/m 5,0 km/h (1 Bft) O-SO 112 0,7 C 2,4 C
03.04.2012 07:52 3,6 C 82 % 1007,4 hPa 0,0 l/m 12,2 km/h (2 Bft) O-NO 67 0,8 C 0,5 C
03.04.2012 07:57 3,6 C 82 % 1007,5 hPa 0,0 l/m 8,3 km/h (2 Bft) O 90 0,8 C 1,4 C
03.04.2012 08:02 3,6 C 82 % 1007,6 hPa 0,0 l/m 9,7 km/h (2 Bft) O 90 0,8 C 1,1 C
03.04.2012 08:07 3,6 C 82 % 1007,5 hPa 0,0 l/m 5,0 km/h (1 Bft) O-NO 67 0,8 C 2,5 C
03.04.2012 08:12 3,6 C 82 % 1007,6 hPa 0,0 l/m 10,1 km/h (2 Bft) O-NO 67 0,8 C 1,0 C
03.04.2012 08:17 3,6 C 82 % 1007,8 hPa 0,0 l/m 5,8 km/h (2 Bft) O-NO 67 0,8 C 2,2 C
03.04.2012 08:22 3,7 C 82 % 1007,9 hPa 0,0 l/m 9,7 km/h (2 Bft) O 90 0,9 C 1,2 C
03.04.2012 08:27 3,8 C 82 % 1007,8 hPa 0,0 l/m 5,0 km/h (1 Bft) O-SO 112 1,0 C 2,7 C
03.04.2012 08:32 3,8 C 82 % 1007,9 hPa 0,0 l/m 11,5 km/h (2 Bft) O-NO 67 1,0 C 0,9 C
03.04.2012 08:37 3,8 C 82 % 1007,9 hPa 0,0 l/m 6,5 km/h (2 Bft) O 90 1,0 C 2,2 C
03.04.2012 08:42 3,8 C 82 % 1007,9 hPa 0,0 l/m 4,0 km/h (1 Bft) O 90 1,0 C 3,8 C
03.04.2012 08:47 3,8 C 82 % 1007,8 hPa 0,0 l/m 8,3 km/h (2 Bft) O-SO 112 1,0 C 1,6 C
03.04.2012 08:52 3,8 C 82 % 1007,6 hPa 0,0 l/m 17,3 km/h (3 Bft) O-NO 67 1,0 C -0,1 C
03.04.2012 08:57 3,9 C 82 % 1007,7 hPa 0,0 l/m 11,9 km/h (2 Bft) O-SO 112 1,1 C 0,9 C
03.04.2012 09:02 3,9 C 82 % 1007,6 hPa 0,0 l/m 14,4 km/h (3 Bft) O 90 1,1 C 0,5 C
03.04.2012 09:07 3,9 C 82 % 1007,6 hPa 0,0 l/m 9,7 km/h (2 Bft) O-SO 112 1,1 C 1,4 C
03.04.2012 09:12 3,9 C 82 % 1007,5 hPa 0,0 l/m 7,6 km/h (2 Bft) O 90 1,1 C 2,0 C
03.04.2012 09:17 3,9 C 82 % 1007,7 hPa 0,0 l/m 8,6 km/h (2 Bft) O 90 1,1 C 1,7 C
03.04.2012 09:22 3,9 C 82 % 1007,7 hPa 0,0 l/m 15,8 km/h (3 Bft) O 90 1,1 C 0,3 C
03.04.2012 09:27 3,9 C 82 % 1007,6 hPa 0,0 l/m 5,4 km/h (1 Bft) O 90 1,1 C 2,7 C
03.04.2012 09:32 4,1 C 82 % 1007,5 hPa 0,0 l/m 4,3 km/h (1 Bft) O-SO 112 1,3 C 4,1 C
03.04.2012 09:37 4,1 C 82 % 1007,8 hPa 0,0 l/m 4,3 km/h (1 Bft) NO 45 1,3 C 4,1 C
03.04.2012 09:42 4,2 C 82 % 1007,6 hPa 0,0 l/m 11,5 km/h (2 Bft) O-NO 67 1,4 C 1,4 C
03.04.2012 09:47 4,3 C 82 % 1007,6 hPa 0,0 l/m 7,6 km/h (2 Bft) O-SO 112 1,5 C 2,4 C
03.04.2012 09:52 4,4 C 82 % 1007,4 hPa 0,0 l/m 8,3 km/h (2 Bft) O-SO 112 1,6 C 2,4 C
03.04.2012 09:57 4,5 C 82 % 1007,4 hPa 0,0 l/m 9,0 km/h (2 Bft) O 90 1,7 C 2,3 C
03.04.2012 10:02 4,6 C 81 % 1007,6 hPa 0,0 l/m 11,5 km/h (2 Bft) O-SO 112 1,6 C 1,9 C
03.04.2012 10:07 4,6 C 81 % 1007,6 hPa 0,0 l/m 5,0 km/h (1 Bft) O-SO 112 1,6 C 3,6 C
03.04.2012 10:12 4,8 C 81 % 1007,7 hPa 0,0 l/m 14,8 km/h (3 Bft) O 90 1,8 C 1,5 C
03.04.2012 10:17 5,0 C 81 % 1007,7 hPa 0,0 l/m 8,6 km/h (2 Bft) SO 135 2,0 C 3,0 C
03.04.2012 10:22 5,2 C 80 % 1007,5 hPa 0,0 l/m 16,2 km/h (3 Bft) O 90 2,0 C 1,8 C
03.04.2012 10:27 5,4 C 80 % 1007,6 hPa 0,0 l/m 7,6 km/h (2 Bft) SO 135 2,2 C 3,7 C
03.04.2012 10:32 5,6 C 80 % 1007,7 hPa 0,0 l/m 5,4 km/h (1 Bft) O 90 2,4 C 4,6 C
03.04.2012 10:37 5,6 C 79 % 1007,7 hPa 0,0 l/m 15,1 km/h (3 Bft) O-SO 112 2,3 C 2,5 C
03.04.2012 10:42 5,8 C 79 % 1007,6 hPa 0,0 l/m 8,3 km/h (2 Bft) O-SO 112 2,4 C 4,0 C
03.04.2012 10:47 5,9 C 79 % 1007,4 hPa 0,0 l/m 13,7 km/h (3 Bft) O-SO 112 2,5 C 3,1 C
03.04.2012 10:52 6,0 C 78 % 1007,4 hPa 0,0 l/m 4,0 km/h (1 Bft) O-NO 67 2,5 C 6,0 C
03.04.2012 10:57 6,1 C 78 % 1007,5 hPa 0,0 l/m 5,4 km/h (1 Bft) SO 135 2,6 C 5,2 C
03.04.2012 11:02 6,1 C 78 % 1007,5 hPa 0,0 l/m 9,7 km/h (2 Bft) O 90 2,6 C 4,0 C
03.04.2012 11:07 6,1 C 78 % 1007,5 hPa 0,0 l/m 9,4 km/h (2 Bft) O-SO 112 2,6 C 4,1 C
03.04.2012 11:12 6,1 C 78 % 1007,7 hPa 0,0 l/m 8,3 km/h (2 Bft) O-NO 67 2,6 C 4,4 C
03.04.2012 11:17 6,1 C 78 % 1007,5 hPa 0,0 l/m 8,3 km/h (2 Bft) O 90 2,6 C 4,4 C
03.04.2012 11:22 6,1 C 79 % 1007,5 hPa 0,0 l/m 13,7 km/h (3 Bft) O 90 2,7 C 3,3 C
03.04.2012 11:27 6,2 C 79 % 1007,6 hPa 0,0 l/m 2,5 km/h (1 Bft) O-NO 67 2,8 C 6,2 C
03.04.2012 11:32 6,2 C 79 % 1007,7 hPa 0,0 l/m 7,2 km/h (2 Bft) O 90 2,8 C 4,8 C
03.04.2012 11:37 6,3 C 79 % 1007,6 hPa 0,0 l/m 6,1 km/h (2 Bft) N-NO 22 2,9 C 5,2 C
03.04.2012 11:42 6,4 C 79 % 1007,5 hPa 0,0 l/m 6,8 km/h (2 Bft) O 90 3,0 C 5,1 C
03.04.2012 11:47 6,5 C 79 % 1007,6 hPa 0,0 l/m 6,8 km/h (2 Bft) O 90 3,1 C 5,2 C
03.04.2012 11:52 6,7 C 79 % 1007,6 hPa 0,0 l/m 6,5 km/h (2 Bft) O 90 3,3 C 5,5 C
03.04.2012 11:57 6,8 C 79 % 1007,6 hPa 0,0 l/m 6,1 km/h (2 Bft) O 90 3,4 C 5,8 C
03.04.2012 12:02 6,9 C 79 % 1007,6 hPa 0,0 l/m 5,0 km/h (1 Bft) O-SO 112 3,5 C 6,2 C
03.04.2012 12:07 7,0 C 79 % 1007,6 hPa 0,0 l/m 7,6 km/h (2 Bft) O 90 3,6 C 5,6 C
03.04.2012 12:12 7,2 C 78 % 1007,7 hPa 0,0 l/m 8,6 km/h (2 Bft) N 360 3,6 C 5,6 C
03.04.2012 12:17 7,3 C 77 % 1007,4 hPa 0,0 l/m 7,6 km/h (2 Bft) O 90 3,5 C 5,9 C
03.04.2012 12:22 7,4 C 77 % 1007,3 hPa 0,0 l/m 6,5 km/h (2 Bft) O-NO 67 3,6 C 6,3 C
03.04.2012 12:27 7,6 C 77 % 1007,4 hPa 0,0 l/m 7,9 km/h (2 Bft) O-NO 67 3,8 C 6,2 C
03.04.2012 12:32 7,8 C 76 % 1007,4 hPa 0,0 l/m 7,2 km/h (2 Bft) O 90 3,8 C 6,6 C
03.04.2012 12:37 8,1 C 76 % 1007,3 hPa 0,0 l/m 0,0 km/h (0 Bft) O-SO 112 4,1 C 8,1 C
03.04.2012 12:42 8,3 C 75 % 1007,2 hPa 0,0 l/m 7,6 km/h (2 Bft) O-NO 67 4,1 C 7,1 C
03.04.2012 12:47 8,6 C 74 % 1007,3 hPa 0,0 l/m 6,8 km/h (2 Bft) NO 45 4,2 C 7,6 C
03.04.2012 12:52 8,8 C 74 % 1007,1 hPa 0,0 l/m 15,8 km/h (3 Bft) O 90 4,4 C 6,3 C
03.04.2012 12:57 9,0 C 73 % 1007,0 hPa 0,0 l/m 7,9 km/h (2 Bft) O-SO 112 4,4 C 7,9 C
03.04.2012 13:02 9,2 C 73 % 1007,0 hPa 0,0 l/m 3,6 km/h (1 Bft) O-NO 67 4,6 C 9,2 C
03.04.2012 13:07 9,2 C 72 % 1007,2 hPa 0,0 l/m 4,0 km/h (1 Bft) N-NW 337 4,4 C 9,2 C
03.04.2012 13:12 9,4 C 71 % 1007,0 hPa 0,0 l/m 5,0 km/h (1 Bft) O-NO 67 4,4 C 9,1 C
03.04.2012 13:17 9,5 C 71 % 1007,1 hPa 0,0 l/m 15,1 km/h (3 Bft) NO 45 4,5 C 7,3 C
03.04.2012 13:22 9,7 C 71 % 1006,8 hPa 0,0 l/m 11,9 km/h (2 Bft) O 90 4,7 C 8,0 C
03.04.2012 13:27 9,8 C 71 % 1007,0 hPa 0,0 l/m 12,2 km/h (2 Bft) SO 135 4,8 C 8,0 C
03.04.2012 13:32 9,8 C 71 % 1006,9 hPa 0,0 l/m 9,0 km/h (2 Bft) O 90 4,8 C 8,6 C
03.04.2012 13:37 9,8 C 70 % 1006,8 hPa 0,0 l/m 10,1 km/h (2 Bft) O 90 4,6 C 8,4 C
03.04.2012 13:42 9,6 C 70 % 1007,0 hPa 0,0 l/m 9,7 km/h (2 Bft) O-NO 67 4,4 C 8,2 C
03.04.2012 13:47 9,6 C 70 % 1006,9 hPa 0,0 l/m 6,1 km/h (2 Bft) O-SO 112 4,4 C 9,0 C
03.04.2012 13:52 9,8 C 70 % 1006,8 hPa 0,0 l/m 10,4 km/h (2 Bft) O 90 4,6 C 8,3 C
03.04.2012 13:57 9,8 C 71 % 1006,8 hPa 0,0 l/m 10,8 km/h (2 Bft) O 90 4,8 C 8,3 C
03.04.2012 14:02 9,7 C 71 % 1006,9 hPa 0,0 l/m 5,4 km/h (1 Bft) O 90 4,7 C 9,3 C
03.04.2012 14:07 9,6 C 71 % 1007,0 hPa 0,0 l/m 9,4 km/h (2 Bft) O-NO 67 4,6 C 8,3 C
03.04.2012 14:12 9,6 C 71 % 1006,8 hPa 0,0 l/m 5,8 km/h (2 Bft) O-SO 112 4,6 C 9,1 C
03.04.2012 14:17 9,4 C 73 % 1006,9 hPa 0,5 l/m 10,1 km/h (2 Bft) O 90 4,8 C 7,9 C
03.04.2012 14:22 9,3 C 74 % 1007,0 hPa 0,0 l/m 8,3 km/h (2 Bft) O-NO 67 4,9 C 8,1 C
03.04.2012 14:27 9,0 C 75 % 1006,7 hPa 0,5 l/m 4,0 km/h (1 Bft) O-NO 67 4,8 C 9,0 C
03.04.2012 14:32 8,9 C 76 % 1006,7 hPa 0,0 l/m 11,5 km/h (2 Bft) O 90 4,9 C 7,1 C
03.04.2012 14:37 8,8 C 77 % 1006,9 hPa 0,0 l/m 7,6 km/h (2 Bft) O 90 5,0 C 7,7 C
03.04.2012 14:42 8,8 C 77 % 1006,8 hPa 0,0 l/m 5,8 km/h (2 Bft) NO 45 5,0 C 8,1 C
03.04.2012 14:47 8,8 C 78 % 1006,6 hPa 0,0 l/m 6,5 km/h (2 Bft) O 90 5,2 C 8,0 C
03.04.2012 14:52 8,8 C 78 % 1006,5 hPa 0,0 l/m 8,3 km/h (2 Bft) O-NO 67 5,2 C 7,5 C
03.04.2012 14:57 8,8 C 78 % 1006,4 hPa 0,0 l/m 6,8 km/h (2 Bft) N-NO 22 5,2 C 7,9 C
03.04.2012 15:02 8,9 C 78 % 1006,3 hPa 0,0 l/m 7,9 km/h (2 Bft) O-NO 67 5,3 C 7,7 C
03.04.2012 15:07 9,0 C 77 % 1006,3 hPa 0,0 l/m 13,3 km/h (3 Bft) O-NO 67 5,2 C 6,9 C
03.04.2012 15:12 8,9 C 77 % 1006,3 hPa 0,0 l/m 5,0 km/h (1 Bft) O-SO 112 5,1 C 8,5 C
03.04.2012 15:17 8,9 C 77 % 1006,3 hPa 0,0 l/m 9,4 km/h (2 Bft) O-NO 67 5,1 C 7,4 C
03.04.2012 15:22 8,9 C 77 % 1006,2 hPa 0,0 l/m 8,6 km/h (2 Bft) O-NO 67 5,1 C 7,6 C
03.04.2012 15:27 8,9 C 77 % 1006,1 hPa 0,0 l/m 10,4 km/h (2 Bft) O 90 5,1 C 7,2 C
03.04.2012 15:32 8,9 C 78 % 1006,2 hPa 0,0 l/m 11,5 km/h (2 Bft) O 90 5,3 C 7,1 C
03.04.2012 15:37 9,0 C 78 % 1006,1 hPa 0,0 l/m 7,6 km/h (2 Bft) O 90 5,4 C 7,9 C
03.04.2012 15:42 9,0 C 78 % 1005,9 hPa 0,0 l/m 11,2 km/h (2 Bft) NO 45 5,4 C 7,2 C
03.04.2012 15:47 9,1 C 77 % 1006,1 hPa 0,0 l/m 7,6 km/h (2 Bft) O-NO 67 5,3 C 8,0 C
03.04.2012 15:52 9,3 C 78 % 1005,9 hPa 0,0 l/m 6,5 km/h (2 Bft) O-SO 112 5,7 C 8,5 C
03.04.2012 15:57 9,3 C 77 % 1005,9 hPa 0,0 l/m 6,1 km/h (2 Bft) O-NO 67 5,5 C 8,6 C
03.04.2012 16:02 9,3 C 77 % 1005,8 hPa 0,0 l/m 7,6 km/h (2 Bft) O 90 5,5 C 8,3 C
03.04.2012 16:07 9,3 C 77 % 1005,9 hPa 0,0 l/m 16,6 km/h (3 Bft) O-NO 67 5,5 C 6,9 C
03.04.2012 16:12 9,5 C 77 % 1005,9 hPa 0,0 l/m 7,6 km/h (2 Bft) O-NO 67 5,7 C 8,5 C
03.04.2012 16:17 9,6 C 76 % 1005,9 hPa 0,0 l/m 7,9 km/h (2 Bft) O-NO 67 5,6 C 8,6 C
03.04.2012 16:22 9,8 C 76 % 1005,8 hPa 0,0 l/m 6,8 km/h (2 Bft) O 90 5,8 C 9,0 C
03.04.2012 16:27 9,8 C 75 % 1005,8 hPa 0,0 l/m 11,9 km/h (2 Bft) O 90 5,6 C 8,1 C
03.04.2012 16:32 9,7 C 75 % 1005,9 hPa 0,0 l/m 13,7 km/h (3 Bft) O-SO 112 5,5 C 7,7 C
03.04.2012 16:37 9,6 C 76 % 1005,7 hPa 0,0 l/m 7,2 km/h (2 Bft) O-SO 112 5,6 C 8,7 C
03.04.2012 16:42 9,6 C 75 % 1005,7 hPa 0,0 l/m 12,2 km/h (2 Bft) O 90 5,4 C 7,8 C
03.04.2012 16:47 9,4 C 75 % 1005,8 hPa 0,0 l/m 13,0 km/h (3 Bft) O-NO 67 5,2 C 7,4 C
03.04.2012 16:52 9,3 C 75 % 1005,7 hPa 0,0 l/m 5,4 km/h (1 Bft) O 90 5,1 C 8,8 C
03.04.2012 16:57 9,2 C 76 % 1005,7 hPa 0,0 l/m 6,8 km/h (2 Bft) O-SO 112 5,2 C 8,3 C
03.04.2012 17:02 9,1 C 76 % 1005,8 hPa 0,0 l/m 7,6 km/h (2 Bft) O-SO 112 5,1 C 8,0 C
03.04.2012 17:07 9,0 C 77 % 1005,8 hPa 0,0 l/m 7,2 km/h (2 Bft) O-SO 112 5,2 C 8,0 C
03.04.2012 17:12 8,9 C 77 % 1005,8 hPa 0,0 l/m 10,4 km/h (2 Bft) O-SO 112 5,1 C 7,2 C
03.04.2012 17:17 8,9 C 77 % 1005,8 hPa 0,0 l/m 5,4 km/h (1 Bft) O 90 5,1 C 8,4 C
03.04.2012 17:22 8,8 C 77 % 1005,8 hPa 0,0 l/m 4,3 km/h (1 Bft) O 90 5,0 C 8,8 C
03.04.2012 17:27 8,7 C 78 % 1005,8 hPa 0,0 l/m 9,4 km/h (2 Bft) O 90 5,1 C 7,2 C
03.04.2012 17:32 8,6 C 79 % 1005,8 hPa 0,0 l/m 6,5 km/h (2 Bft) O-NO 67 5,2 C 7,7 C
03.04.2012 17:37 8,4 C 79 % 1005,9 hPa 0,0 l/m 6,8 km/h (2 Bft) O-NO 67 5,0 C 7,4 C
03.04.2012 17:42 8,3 C 80 % 1005,8 hPa 0,0 l/m 8,6 km/h (2 Bft) O-NO 67 5,1 C 6,9 C
03.04.2012 17:47 8,2 C 80 % 1005,7 hPa 0,0 l/m 7,9 km/h (2 Bft) O 90 5,0 C 6,9 C
03.04.2012 17:52 8,1 C 81 % 1005,7 hPa 0,0 l/m 8,3 km/h (2 Bft) O 90 5,0 C 6,7 C
03.04.2012 17:57 8,1 C 81 % 1005,8 hPa 0,0 l/m 9,7 km/h (2 Bft) O 90 5,0 C 6,4 C
03.04.2012 18:02 7,9 C 81 % 1005,8 hPa 0,0 l/m 4,7 km/h (1 Bft) NO 45 4,8 C 7,5 C
03.04.2012 18:07 7,9 C 82 % 1005,7 hPa 0,0 l/m 5,4 km/h (1 Bft) O 90 5,0 C 7,2 C
03.04.2012 18:12 7,8 C 82 % 1005,8 hPa 0,0 l/m 16,2 km/h (3 Bft) O-NO 67 4,9 C 5,0 C
03.04.2012 18:17 7,6 C 83 % 1005,8 hPa 0,0 l/m 3,6 km/h (1 Bft) O 90 4,9 C 7,6 C
03.04.2012 18:22 7,6 C 83 % 1005,8 hPa 0,5 l/m 3,2 km/h (1 Bft) O 90 4,9 C 7,6 C
03.04.2012 18:27 7,6 C 83 % 1005,8 hPa 0,0 l/m 5,4 km/h (1 Bft) O-NO 67 4,9 C 6,9 C
03.04.2012 18:32 7,6 C 84 % 1005,8 hPa 0,5 l/m 5,8 km/h (2 Bft) O-NO 67 5,1 C 6,8 C
03.04.2012 18:37 7,5 C 84 % 1005,9 hPa 0,0 l/m 0,0 km/h (0 Bft) O-NO 67 5,0 C 7,5 C
03.04.2012 18:42 7,4 C 84 % 1005,9 hPa 0,0 l/m 10,8 km/h (2 Bft) O-NO 67 4,9 C 5,4 C
03.04.2012 18:47 7,3 C 85 % 1005,7 hPa 0,0 l/m 5,0 km/h (1 Bft) O-NO 67 4,9 C 6,7 C
03.04.2012 18:52 7,3 C 85 % 1005,6 hPa 0,0 l/m 6,1 km/h (2 Bft) O-NO 67 4,9 C 6,3 C
03.04.2012 18:57 7,2 C 85 % 1005,8 hPa 0,0 l/m 14,4 km/h (3 Bft) O-NO 67 4,9 C 4,5 C
03.04.2012 19:02 7,2 C 85 % 1005,9 hPa 0,0 l/m 5,8 km/h (2 Bft) O-NO 67 4,9 C 6,3 C
03.04.2012 19:07 7,2 C 85 % 1005,9 hPa 0,0 l/m 5,8 km/h (2 Bft) O 90 4,9 C 6,3 C
03.04.2012 19:12 7,2 C 86 % 1005,9 hPa 0,0 l/m 4,7 km/h (1 Bft) O-NO 67 5,0 C 6,7 C
03.04.2012 19:17 7,1 C 86 % 1005,9 hPa 0,5 l/m 5,8 km/h (2 Bft) O 90 4,9 C 6,2 C
03.04.2012 19:22 7,0 C 86 % 1005,8 hPa 0,0 l/m 6,1 km/h (2 Bft) O 90 4,8 C 6,0 C
03.04.2012 19:27 7,0 C 86 % 1005,9 hPa 0,0 l/m 7,2 km/h (2 Bft) O 90 4,8 C 5,7 C
03.04.2012 19:32 6,9 C 86 % 1005,8 hPa 0,0 l/m 6,5 km/h (2 Bft) O-NO 67 4,7 C 5,8 C
03.04.2012 19:37 6,9 C 86 % 1005,8 hPa 0,0 l/m 8,3 km/h (2 Bft) O-NO 67 4,7 C 5,3 C
03.04.2012 19:42 6,9 C 87 % 1005,9 hPa 0,0 l/m 6,8 km/h (2 Bft) O-NO 67 4,9 C 5,7 C
03.04.2012 19:47 6,9 C 87 % 1005,9 hPa 0,0 l/m 6,1 km/h (2 Bft) O-NO 67 4,9 C 5,9 C
03.04.2012 19:52 6,9 C 87 % 1006,0 hPa 0,0 l/m 4,7 km/h (1 Bft) O-NO 67 4,9 C 6,3 C
03.04.2012 19:57 6,9 C 87 % 1005,9 hPa 0,0 l/m 3,6 km/h (1 Bft) O-NO 67 4,9 C 6,9 C
03.04.2012 20:02 6,9 C 87 % 1005,9 hPa 0,0 l/m 7,2 km/h (2 Bft) O-NO 67 4,9 C 5,6 C
03.04.2012 20:07 6,8 C 87 % 1005,9 hPa 0,0 l/m 11,2 km/h (2 Bft) O-NO 67 4,8 C 4,6 C
03.04.2012 20:12 6,8 C 87 % 1005,9 hPa 0,0 l/m 3,6 km/h (1 Bft) O-NO 67 4,8 C 6,8 C
03.04.2012 20:17 6,7 C 87 % 1006,1 hPa 0,0 l/m 12,2 km/h (2 Bft) NO 45 4,7 C 4,3 C
03.04.2012 20:22 6,7 C 87 % 1006,3 hPa 0,0 l/m 4,7 km/h (1 Bft) O-NO 67 4,7 C 6,1 C
03.04.2012 20:27 6,7 C 87 % 1006,0 hPa 0,0 l/m 5,8 km/h (2 Bft) O-NO 67 4,7 C 5,7 C
03.04.2012 20:32 6,6 C 87 % 1006,2 hPa 0,0 l/m 5,4 km/h (1 Bft) O-NO 67 4,6 C 5,8 C
03.04.2012 20:37 6,6 C 87 % 1006,1 hPa 0,0 l/m 9,0 km/h (2 Bft) O-NO 67 4,6 C 4,8 C
03.04.2012 20:42 6,6 C 87 % 1006,1 hPa 0,0 l/m 5,4 km/h (1 Bft) O 90 4,6 C 5,8 C
03.04.2012 20:47 6,5 C 87 % 1006,1 hPa 0,0 l/m 8,3 km/h (2 Bft) NO 45 4,5 C 4,8 C
03.04.2012 20:52 6,5 C 88 % 1006,2 hPa 0,0 l/m 5,0 km/h (1 Bft) O-SO 112 4,7 C 5,8 C
03.04.2012 20:57 6,4 C 88 % 1006,3 hPa 0,0 l/m 5,0 km/h (1 Bft) O-SO 112 4,6 C 5,7 C
03.04.2012 21:02 6,4 C 88 % 1006,2 hPa 0,0 l/m 5,0 km/h (1 Bft) O 90 4,6 C 5,7 C
03.04.2012 21:07 6,4 C 88 % 1006,2 hPa 0,0 l/m 10,4 km/h (2 Bft) O 90 4,6 C 4,3 C
03.04.2012 21:12 6,4 C 88 % 1006,3 hPa 0,0 l/m 12,2 km/h (2 Bft) O-NO 67 4,6 C 3,9 C
03.04.2012 21:17 6,3 C 88 % 1006,3 hPa 0,0 l/m 10,4 km/h (2 Bft) O-NO 67 4,5 C 4,1 C
03.04.2012 21:22 6,3 C 88 % 1006,2 hPa 0,0 l/m 5,0 km/h (1 Bft) O-NO 67 4,5 C 5,6 C
03.04.2012 21:27 6,3 C 88 % 1006,2 hPa 0,0 l/m 5,8 km/h (2 Bft) N-NO 22 4,5 C 5,3 C
03.04.2012 21:32 6,3 C 88 % 1006,3 hPa 0,0 l/m 7,9 km/h (2 Bft) SO 135 4,5 C 4,7 C
03.04.2012 21:37 6,3 C 88 % 1006,3 hPa 0,0 l/m 8,6 km/h (2 Bft) O 90 4,5 C 4,5 C
03.04.2012 21:42 6,2 C 88 % 1006,2 hPa 0,0 l/m 4,0 km/h (1 Bft) O 90 4,4 C 6,2 C
03.04.2012 21:47 6,2 C 88 % 1006,2 hPa 0,5 l/m 7,2 km/h (2 Bft) O 90 4,4 C 4,8 C
03.04.2012 21:52 6,1 C 88 % 1006,3 hPa 0,0 l/m 12,6 km/h (3 Bft) O-SO 112 4,3 C 3,5 C
03.04.2012 21:57 6,1 C 89 % 1006,3 hPa 0,0 l/m 12,2 km/h (2 Bft) O 90 4,4 C 3,6 C
03.04.2012 22:02 6,1 C 89 % 1006,2 hPa 0,0 l/m 8,6 km/h (2 Bft) O-NO 67 4,4 C 4,3 C
03.04.2012 22:07 6,1 C 89 % 1006,2 hPa 0,0 l/m 10,4 km/h (2 Bft) O-NO 67 4,4 C 3,9 C
03.04.2012 22:12 6,1 C 89 % 1006,2 hPa 0,0 l/m 4,7 km/h (1 Bft) O-SO 112 4,4 C 5,4 C
03.04.2012 22:17 6,1 C 89 % 1006,2 hPa 0,0 l/m 7,2 km/h (2 Bft) O-SO 112 4,4 C 4,6 C
03.04.2012 22:22 6,1 C 89 % 1006,3 hPa 0,0 l/m 4,7 km/h (1 Bft) O 90 4,4 C 5,4 C
03.04.2012 22:27 6,1 C 89 % 1006,2 hPa 0,0 l/m 4,7 km/h (1 Bft) O 90 4,4 C 5,4 C
03.04.2012 22:32 6,1 C 89 % 1006,3 hPa 0,0 l/m 4,7 km/h (1 Bft) O 90 4,4 C 5,4 C
03.04.2012 22:37 6,1 C 89 % 1006,2 hPa 0,0 l/m 8,6 km/h (2 Bft) O-NO 67 4,4 C 4,3 C
03.04.2012 22:42 6,1 C 89 % 1006,2 hPa 0,0 l/m 3,2 km/h (1 Bft) O-NO 67 4,4 C 6,1 C
03.04.2012 22:47 6,1 C 89 % 1006,2 hPa 0,0 l/m 7,2 km/h (2 Bft) O-NO 67 4,4 C 4,6 C
03.04.2012 22:52 6,0 C 89 % 1006,3 hPa 0,0 l/m 10,1 km/h (2 Bft) O-NO 67 4,3 C 3,8 C
03.04.2012 22:57 5,9 C 89 % 1006,2 hPa 0,0 l/m 13,0 km/h (3 Bft) O-NO 67 4,2 C 3,2 C
03.04.2012 23:02 5,9 C 89 % 1006,2 hPa 0,0 l/m 9,4 km/h (2 Bft) O-NO 67 4,2 C 3,9 C
03.04.2012 23:07 5,9 C 89 % 1006,0 hPa 0,0 l/m 10,4 km/h (2 Bft) O-NO 67 4,2 C 3,7 C
03.04.2012 23:12 5,9 C 89 % 1005,9 hPa 0,0 l/m 10,8 km/h (2 Bft) O-NO 67 4,2 C 3,6 C
03.04.2012 23:17 5,8 C 89 % 1005,8 hPa 0,0 l/m 9,0 km/h (2 Bft) O 90 4,1 C 3,8 C
03.04.2012 23:22 5,8 C 89 % 1005,9 hPa 0,0 l/m 6,8 km/h (2 Bft) NO 45 4,1 C 4,4 C
03.04.2012 23:27 5,9 C 89 % 1005,9 hPa 0,0 l/m 6,1 km/h (2 Bft) O-NO 67 4,2 C 4,7 C
03.04.2012 23:32 5,8 C 89 % 1005,9 hPa 0,0 l/m 0,0 km/h (0 Bft) O-NO 67 4,1 C 5,8 C
03.04.2012 23:37 5,8 C 89 % 1005,9 hPa 0,0 l/m 4,7 km/h (1 Bft) O 90 4,1 C 5,1 C
03.04.2012 23:42 5,8 C 89 % 1005,8 hPa 0,0 l/m 2,5 km/h (1 Bft) O 90 4,1 C 5,8 C
03.04.2012 23:47 5,8 C 89 % 1006,0 hPa 0,0 l/m 4,0 km/h (1 Bft) O 90 4,1 C 5,8 C
03.04.2012 23:52 5,8 C 89 % 1006,0 hPa 0,0 l/m 3,6 km/h (1 Bft) O-NO 67 4,1 C 5,8 C
03.04.2012 23:57 5,8 C 89 % 1005,9 hPa 0,0 l/m 8,6 km/h (2 Bft) O-NO 67 4,1 C 3,9 C
_ Min-Zeit 07:07 13:37 18:52 - 00:02 - - 07:07 08:52
Minimum _ 3,4 C 70 % 1005,6 hPa - 0,0 km/h (0 Bft) - - 0,6 C -0,1 C
_ Max-Zeit 13:27 21:57 00:02 14:17 08:52 - - 16:22 14:02
Maximum _ 9,8 C 89 % 1008,7 hPa 0,5 l/m 17,3 km/h
O-NO (3 Bft)
- - 5,8 C 9,3 C
Durchschnitt _ 6,1 C 81 % 1007,0 hPa #3,1 l/m 6,4 km/h (2 Bft) O-NO - 3,0 C 5,0 C
(c) by David Heller